Time;durP1;ratioP1;P1;durP2;ratioP2;P2;SDS_P1;SDS_P2;PMS_P1;PMS_P2;Temp;Humidity;BMP_temperature;BMP_pressure;BME280_temperature;BME280_humidity;BME280_pressure;Samples;Min_cycle;Max_cycle;Signal;HPM_P1;HPM_P2
2021/12/23 00:01:02;;;;;;;8.50;2.92;;;;;;;;;;4825066;29;20943;-63
2021/12/23 00:03:28;;;;;;;9.38;3.17;;;;;;;;;;4815830;29;20042;-62
2021/12/23 00:05:54;;;;;;;12.52;2.58;;;;;;;;;;4837358;29;20060;-62
2021/12/23 00:08:20;;;;;;;7.55;2.72;;;;;;;;;;4854948;29;20088;-62
2021/12/23 00:10:46;;;;;;;8.90;3.05;;;;;;;;;;4885400;29;20040;-62
2021/12/23 00:13:12;;;;;;;12.65;2.72;;;;;;;;;;4906414;29;20046;-61
2021/12/23 00:16:00;;;;;;;10.40;3.20;;;;;;;;;;4901982;29;20044;-62
2021/12/23 00:23:47;;;;;;;9.50;2.78;;;;;;;;;;4906904;29;20218;-62
2021/12/23 00:26:13;;;;;;;11.38;3.58;;;;;;;;;;4904931;29;20064;-61
2021/12/23 00:28:39;;;;;;;5.78;2.63;;;;;;;;;;4918992;29;20119;-61
2021/12/23 00:31:06;;;;;;;6.03;2.70;;;;;;;;;;4930566;28;20044;-62
2021/12/23 00:33:34;;;;;;;7.50;2.85;;;;;;;;;;4948977;28;20553;-62
2021/12/23 00:36:04;;;;;;;6.38;2.88;;;;;;;;;;4970141;28;20050;-62
2021/12/23 00:38:34;;;;;;;13.27;3.35;;;;;;;;;;4971047;28;20050;-62
2021/12/23 00:41:02;;;;;;;16.60;3.40;;;;;;;;;;4990226;28;20049;-63
2021/12/23 00:43:28;;;;;;;11.23;3.03;;;;;;;;;;5008938;28;20045;-62
2021/12/23 00:45:54;;;;;;;17.38;8.35;;;;;;;;;;5011060;28;20799;-63
2021/12/23 00:48:20;;;;;;;7.50;4.53;;;;;;;;;;5007186;28;20136;-63
2021/12/23 00:50:47;;;;;;;9.20;2.83;;;;;;;;;;5009124;28;20097;-63
2021/12/23 00:53:17;;;;;;;8.07;2.63;;;;;;;;;;5008623;28;20041;-62
2021/12/23 00:55:45;;;;;;;7.22;3.03;;;;;;;;;;5007761;28;20048;-63
2021/12/23 00:58:10;;;;;;;12.55;3.17;;;;;;;;;;5010170;28;20038;-62
2021/12/23 01:00:37;;;;;;;11.02;3.13;;;;;;;;;;5008453;28;20037;-62
2021/12/23 01:03:03;;;;;;;8.27;3.22;;;;;;;;;;5009497;28;20557;-64
2021/12/23 01:05:29;;;;;;;10.93;2.97;;;;;;;;;;5008164;28;20048;-63
2021/12/23 01:07:56;;;;;;;5.65;2.47;;;;;;;;;;5009227;28;20049;-62
2021/12/23 01:10:23;;;;;;;7.40;2.63;;;;;;;;;;4996043;28;20037;-61
2021/12/23 01:12:54;;;;;;;13.48;2.78;;;;;;;;;;5011311;28;20052;-62
2021/12/23 01:18:06;;;;;;;8.45;3.00;;;;;;;;;;5009608;28;20524;-62
2021/12/23 01:20:33;;;;;;;9.77;3.35;;;;;;;;;;5008692;28;20073;-63
2021/12/23 01:23:01;;;;;;;10.93;3.47;;;;;;;;;;5007959;28;20046;-62
2021/12/23 01:25:27;;;;;;;7.55;3.08;;;;;;;;;;5007988;28;20037;-62
2021/12/23 01:27:53;;;;;;;6.63;2.85;;;;;;;;;;5008721;28;20046;-63
2021/12/23 01:30:19;;;;;;;10.35;3.38;;;;;;;;;;4994426;28;20034;-63
2021/12/23 01:32:46;;;;;;;7.75;3.72;;;;;;;;;;5011908;28;20294;-63
2021/12/23 01:35:11;;;;;;;12.23;3.85;;;;;;;;;;5010655;28;20041;-60
2021/12/23 01:37:37;;;;;;;19.55;6.50;;;;;;;;;;5008147;28;20049;-63
2021/12/23 01:40:05;;;;;;;9.30;4.28;;;;;;;;;;5009643;28;20037;-60
2021/12/23 01:42:31;;;;;;;11.68;3.60;;;;;;;;;;5007321;28;20041;-63
2021/12/23 01:44:57;;;;;;;13.05;2.72;;;;;;;;;;4994284;28;20038;-62
2021/12/23 01:47:23;;;;;;;9.98;2.67;;;;;;;;;;4988200;28;20080;-62
2021/12/23 01:49:50;;;;;;;13.10;2.25;;;;;;;;;;4962374;28;20049;-62
2021/12/23 01:52:16;;;;;;;5.22;1.60;;;;;;;;;;5011509;28;20052;-62
2021/12/23 01:54:45;;;;;;;5.70;1.67;;;;;;;;;;5008905;28;20045;-62
2021/12/23 01:57:12;;;;;;;5.50;1.50;;;;;;;;;;5008134;28;20045;-62
2021/12/23 01:59:38;;;;;;;3.92;1.30;;;;;;;;;;5009394;28;20042;-62
2021/12/23 02:02:04;;;;;;;7.20;2.92;;;;;;;;;;5009796;28;20034;-62
2021/12/23 02:04:30;;;;;;;9.38;4.10;;;;;;;;;;5007524;28;20040;-60
2021/12/23 02:06:56;;;;;;;11.00;5.22;;;;;;;;;;5009368;28;20489;-61
2021/12/23 02:09:24;;;;;;;13.63;4.88;;;;;;;;;;5008809;28;20046;-61
2021/12/23 02:11:50;;;;;;;9.48;5.28;;;;;;;;;;4980687;28;20088;-60
2021/12/23 02:14:17;;;;;;;9.07;5.10;;;;;;;;;;5008196;28;20364;-61
2021/12/23 02:16:43;;;;;;;10.82;5.93;;;;;;;;;;5010484;28;20550;-61
2021/12/23 02:19:17;;;;;;;14.48;5.22;;;;;;;;;;5008827;28;20042;-61
2021/12/23 02:21:43;;;;;;;15.57;7.18;;;;;;;;;;5007610;28;20038;-61
2021/12/23 02:24:09;;;;;;;13.48;7.55;;;;;;;;;;5006389;28;20069;-61
2021/12/23 02:26:41;;;;;;;14.68;7.68;;;;;;;;;;5007893;28;20125;-61
2021/12/23 02:29:08;;;;;;;8.45;4.90;;;;;;;;;;5007681;28;20053;-61
2021/12/23 02:31:34;;;;;;;16.67;9.05;;;;;;;;;;5007287;28;20046;-63
2021/12/23 02:34:00;;;;;;;15.23;8.57;;;;;;;;;;5007765;28;20077;-62
2021/12/23 02:36:26;;;;;;;8.32;4.75;;;;;;;;;;5010735;28;20034;-61
2021/12/23 02:38:53;;;;;;;16.63;9.00;;;;;;;;;;5010652;28;20038;-62
2021/12/23 02:41:19;;;;;;;15.20;8.45;;;;;;;;;;5009923;28;20089;-62
2021/12/23 02:43:45;;;;;;;16.10;9.20;;;;;;;;;;5013053;28;20077;-61
2021/12/23 02:46:11;;;;;;;14.75;9.15;;;;;;;;;;5010535;28;20590;-61
2021/12/23 02:48:38;;;;;;;17.55;9.80;;;;;;;;;;5011309;28;20727;-61
2021/12/23 02:51:05;;;;;;;15.30;8.85;;;;;;;;;;5010233;28;20045;-60
2021/12/23 02:53:31;;;;;;;16.95;9.88;;;;;;;;;;4984034;28;20049;-61
2021/12/23 02:55:58;;;;;;;19.63;10.07;;;;;;;;;;5010941;28;20038;-61
2021/12/23 02:58:24;;;;;;;17.38;10.02;;;;;;;;;;5010365;28;20053;-62
2021/12/23 03:00:51;;;;;;;24.05;10.57;;;;;;;;;;4992196;28;20621;-61
2021/12/23 03:03:17;;;;;;;17.38;10.32;;;;;;;;;;5010585;28;20037;-61
2021/12/23 03:05:51;;;;;;;15.32;9.10;;;;;;;;;;4992824;28;20085;-62
2021/12/23 03:08:26;;;;;;;17.08;10.02;;;;;;;;;;5001510;28;21225;-62
2021/12/23 03:10:52;;;;;;;17.73;9.43;;;;;;;;;;5010201;28;20449;-62
2021/12/23 03:13:17;;;;;;;22.77;12.07;;;;;;;;;;5009827;28;20039;-62
2021/12/23 03:15:43;;;;;;;19.15;9.57;;;;;;;;;;5011330;28;20038;-62
2021/12/23 03:18:09;;;;;;;18.58;10.15;;;;;;;;;;5010178;28;20065;-62
2021/12/23 03:20:35;;;;;;;16.52;9.90;;;;;;;;;;5010388;28;20041;-61
2021/12/23 03:23:01;;;;;;;21.58;10.73;;;;;;;;;;5011002;28;20064;-62
2021/12/23 03:25:26;;;;;;;19.25;10.18;;;;;;;;;;5011703;28;20037;-61
2021/12/23 03:27:52;;;;;;;27.88;11.38;;;;;;;;;;5011546;28;20037;-62
2021/12/23 03:30:18;;;;;;;22.27;10.95;;;;;;;;;;5009627;28;20038;-62
2021/12/23 03:32:44;;;;;;;16.63;11.07;;;;;;;;;;4991723;28;20065;-61
2021/12/23 03:35:10;;;;;;;20.20;10.25;;;;;;;;;;5010659;28;20034;-60
2021/12/23 03:37:36;;;;;;;19.17;10.63;;;;;;;;;;5009680;28;20056;-62
2021/12/23 03:40:03;;;;;;;16.10;10.02;;;;;;;;;;5008501;28;20046;-62
2021/12/23 03:42:29;;;;;;;20.23;10.98;;;;;;;;;;5008263;28;20049;-61
2021/12/23 03:44:55;;;;;;;17.27;11.48;;;;;;;;;;5009126;28;20149;-62
2021/12/23 03:47:20;;;;;;;24.48;13.38;;;;;;;;;;5008990;28;20419;-61
2021/12/23 03:49:46;;;;;;;25.83;13.38;;;;;;;;;;5008757;28;20050;-63
2021/12/23 03:52:13;;;;;;;29.92;15.95;;;;;;;;;;5010433;28;20540;-60
2021/12/23 03:54:38;;;;;;;29.00;14.65;;;;;;;;;;5010375;28;20042;-61
2021/12/23 03:57:05;;;;;;;20.02;12.52;;;;;;;;;;4999385;28;20068;-61
2021/12/23 03:59:30;;;;;;;24.08;12.63;;;;;;;;;;5009014;28;20761;-62
2021/12/23 04:01:56;;;;;;;19.65;11.27;;;;;;;;;;5009745;28;20076;-61
2021/12/23 04:04:22;;;;;;;23.13;10.82;;;;;;;;;;5009429;28;20929;-61
2021/12/23 04:06:48;;;;;;;25.48;11.75;;;;;;;;;;5011290;28;20054;-61
2021/12/23 04:09:14;;;;;;;25.00;12.48;;;;;;;;;;5009333;28;20058;-61
2021/12/23 04:11:40;;;;;;;17.67;10.70;;;;;;;;;;5008561;28;20097;-61
2021/12/23 04:14:06;;;;;;;18.30;10.15;;;;;;;;;;5008601;28;20838;-61
2021/12/23 04:16:32;;;;;;;23.38;9.82;;;;;;;;;;5009471;28;20060;-62
2021/12/23 04:18:57;;;;;;;17.35;9.73;;;;;;;;;;5010736;28;20128;-61
2021/12/23 04:21:23;;;;;;;18.15;9.85;;;;;;;;;;5007963;28;20038;-61
2021/12/23 04:23:49;;;;;;;21.15;11.13;;;;;;;;;;5009175;28;20053;-62
2021/12/23 04:26:15;;;;;;;20.75;10.30;;;;;;;;;;5024649;28;20031;-60
2021/12/23 04:28:47;;;;;;;25.10;9.38;;;;;;;;;;4990929;28;20486;-62
2021/12/23 04:31:14;;;;;;;17.67;9.77;;;;;;;;;;5009376;28;20045;-62
2021/12/23 04:33:40;;;;;;;24.58;8.93;;;;;;;;;;4989910;28;20071;-61
2021/12/23 04:36:07;;;;;;;17.80;9.07;;;;;;;;;;5009599;28;20069;-60
2021/12/23 04:38:33;;;;;;;16.55;9.38;;;;;;;;;;5007772;28;20454;-60
2021/12/23 04:40:59;;;;;;;20.98;8.93;;;;;;;;;;5008133;28;20124;-61
2021/12/23 04:43:25;;;;;;;16.15;7.35;;;;;;;;;;5011673;28;20087;-62
2021/12/23 04:45:51;;;;;;;16.17;8.20;;;;;;;;;;5009963;28;20036;-63
2021/12/23 04:48:45;;;;;;;18.83;7.53;;;;;;;;;;5019937;28;20101;-61
2021/12/23 04:51:11;;;;;;;22.00;7.68;;;;;;;;;;4997086;28;20063;-62
2021/12/23 04:53:37;;;;;;;10.68;6.00;;;;;;;;;;5009672;28;20080;-61
2021/12/23 04:56:03;;;;;;;18.08;8.05;;;;;;;;;;5010016;28;20137;-61
2021/12/23 04:58:29;;;;;;;14.30;7.10;;;;;;;;;;5006075;28;20025;-61
2021/12/23 05:00:55;;;;;;;17.98;8.38;;;;;;;;;;5008906;28;20088;-61
2021/12/23 05:03:23;;;;;;;13.52;6.00;;;;;;;;;;5008621;28;20534;-62
2021/12/23 05:05:49;;;;;;;12.90;6.65;;;;;;;;;;4989701;28;20042;-63
2021/12/23 05:08:17;;;;;;;19.25;7.45;;;;;;;;;;5007809;28;20048;-62
2021/12/23 05:10:43;;;;;;;13.55;7.47;;;;;;;;;;4988975;28;20072;-62
2021/12/23 05:13:09;;;;;;;13.73;7.50;;;;;;;;;;4990365;28;20561;-62
2021/12/23 05:15:35;;;;;;;14.48;6.85;;;;;;;;;;5007542;28;20041;-62
2021/12/23 05:18:01;;;;;;;13.32;6.25;;;;;;;;;;5011031;28;20042;-62
2021/12/23 05:20:27;;;;;;;13.57;7.15;;;;;;;;;;5010620;28;20058;-62
2021/12/23 05:22:53;;;;;;;16.02;7.13;;;;;;;;;;5009585;28;20064;-62
2021/12/23 05:25:19;;;;;;;20.73;6.63;;;;;;;;;;5008766;28;20041;-62
2021/12/23 05:27:46;;;;;;;14.65;6.75;;;;;;;;;;5008359;28;20578;-62
2021/12/23 05:30:16;;;;;;;14.23;6.93;;;;;;;;;;5007748;28;20030;-63
2021/12/23 05:32:42;;;;;;;19.05;7.45;;;;;;;;;;5000370;28;20521;-62
2021/12/23 05:35:08;;;;;;;16.92;6.30;;;;;;;;;;5007762;28;20211;-62
2021/12/23 05:37:34;;;;;;;13.80;6.00;;;;;;;;;;5007248;28;20037;-62
2021/12/23 05:40:00;;;;;;;12.70;6.55;;;;;;;;;;5007073;28;20046;-64
2021/12/23 05:42:26;;;;;;;11.23;5.78;;;;;;;;;;5005440;28;20133;-62
2021/12/23 05:44:52;;;;;;;12.50;5.95;;;;;;;;;;5007789;28;20095;-62
2021/12/23 05:47:17;;;;;;;15.38;6.32;;;;;;;;;;5007614;28;20063;-62
2021/12/23 05:49:43;;;;;;;9.30;4.78;;;;;;;;;;5007330;28;20046;-63
2021/12/23 05:52:09;;;;;;;10.13;5.60;;;;;;;;;;5006704;28;20084;-62
2021/12/23 05:54:35;;;;;;;11.93;6.18;;;;;;;;;;5006012;28;20034;-62
2021/12/23 05:57:02;;;;;;;10.80;6.05;;;;;;;;;;5009607;28;20077;-62
2021/12/23 05:59:29;;;;;;;18.98;6.72;;;;;;;;;;5006411;28;20498;-62
2021/12/23 06:01:54;;;;;;;11.32;5.97;;;;;;;;;;5007037;28;20382;-62
2021/12/23 06:04:20;;;;;;;9.60;5.47;;;;;;;;;;5006852;28;20033;-62
2021/12/23 06:06:46;;;;;;;11.40;5.60;;;;;;;;;;5008135;28;20050;-61
2021/12/23 06:09:12;;;;;;;10.32;4.88;;;;;;;;;;5007350;28;20161;-62
2021/12/23 06:11:38;;;;;;;10.60;5.30;;;;;;;;;;5009551;28;20060;-62
2021/12/23 06:14:03;;;;;;;11.82;5.28;;;;;;;;;;5012536;28;20050;-62
2021/12/23 06:16:29;;;;;;;9.65;4.50;;;;;;;;;;5010811;28;20041;-63
2021/12/23 06:18:55;;;;;;;10.43;4.47;;;;;;;;;;5010997;28;20092;-62
2021/12/23 06:21:22;;;;;;;9.93;4.25;;;;;;;;;;4995792;28;20038;-62
2021/12/23 06:23:48;;;;;;;9.90;4.53;;;;;;;;;;5012057;28;20603;-62
2021/12/23 06:26:14;;;;;;;8.23;3.20;;;;;;;;;;5010663;28;20045;-62
2021/12/23 06:28:39;;;;;;;7.47;2.63;;;;;;;;;;5011230;28;20042;-63
2021/12/23 06:31:07;;;;;;;7.95;2.53;;;;;;;;;;4997093;28;20129;-63
2021/12/23 06:33:33;;;;;;;5.82;2.25;;;;;;;;;;5013051;28;20532;-62
2021/12/23 06:35:59;;;;;;;6.35;2.75;;;;;;;;;;5013122;28;20069;-62
2021/12/23 06:38:25;;;;;;;5.68;1.80;;;;;;;;;;5013501;28;20048;-63
2021/12/23 06:40:50;;;;;;;2.95;1.00;;;;;;;;;;5013554;28;20048;-63
2021/12/23 06:43:16;;;;;;;3.13;1.20;;;;;;;;;;5013662;28;20034;-63
2021/12/23 06:45:42;;;;;;;2.65;0.90;;;;;;;;;;5012359;28;20045;-63
2021/12/23 06:48:08;;;;;;;2.58;0.77;;;;;;;;;;5013497;28;20521;-62
2021/12/23 06:50:34;;;;;;;2.17;0.77;;;;;;;;;;5012388;28;20089;-63
2021/12/23 06:53:00;;;;;;;2.60;0.77;;;;;;;;;;5012837;28;20053;-63
2021/12/23 06:55:26;;;;;;;2.92;0.88;;;;;;;;;;5011399;28;20691;-63
2021/12/23 06:57:56;;;;;;;2.58;0.90;;;;;;;;;;5012172;28;20051;-63
2021/12/23 07:00:22;;;;;;;3.60;0.80;;;;;;;;;;5010869;28;20029;-63
2021/12/23 07:02:48;;;;;;;2.13;0.80;;;;;;;;;;4995666;28;20044;-62
2021/12/23 07:05:15;;;;;;;2.03;0.77;;;;;;;;;;5012243;28;20030;-62
2021/12/23 07:07:52;;;;;;;2.55;0.80;;;;;;;;;;5012463;28;20045;-62
2021/12/23 07:10:18;;;;;;;2.47;0.90;;;;;;;;;;5009190;28;20049;-62
2021/12/23 07:12:44;;;;;;;3.22;1.35;;;;;;;;;;5011689;28;20686;-62
2021/12/23 07:15:10;;;;;;;5.25;1.90;;;;;;;;;;5010199;28;20041;-63
2021/12/23 07:17:37;;;;;;;4.63;1.92;;;;;;;;;;5010655;28;20519;-62
2021/12/23 07:20:04;;;;;;;5.40;1.83;;;;;;;;;;5009932;28;20044;-62
2021/12/23 07:22:29;;;;;;;4.13;1.90;;;;;;;;;;5009148;28;20038;-62
2021/12/23 07:24:55;;;;;;;5.20;2.00;;;;;;;;;;5012387;28;20068;-62
2021/12/23 07:27:22;;;;;;;6.10;2.40;;;;;;;;;;5009985;28;20041;-62
2021/12/23 07:29:48;;;;;;;4.10;1.83;;;;;;;;;;5011207;28;20042;-62
2021/12/23 07:32:14;;;;;;;3.78;1.58;;;;;;;;;;5009633;28;20077;-62
2021/12/23 07:34:43;;;;;;;5.25;2.00;;;;;;;;;;5009250;28;20038;-62
2021/12/23 07:37:12;;;;;;;9.95;2.50;;;;;;;;;;5011098;28;20041;-62
2021/12/23 07:39:39;;;;;;;5.30;1.75;;;;;;;;;;4991466;28;20069;-64
2021/12/23 07:42:06;;;;;;;5.32;1.73;;;;;;;;;;4993362;28;20120;-60
2021/12/23 07:44:33;;;;;;;6.40;1.92;;;;;;;;;;5009289;28;20557;-61
2021/12/23 07:46:59;;;;;;;7.47;1.75;;;;;;;;;;5010538;28;20510;-63
2021/12/23 07:49:25;;;;;;;6.93;1.83;;;;;;;;;;4992665;28;20053;-62
2021/12/23 07:51:51;;;;;;;5.82;2.35;;;;;;;;;;5008200;28;20046;-62
2021/12/23 07:54:17;;;;;;;5.40;2.03;;;;;;;;;;5009946;28;20060;-62
2021/12/23 07:56:43;;;;;;;5.90;1.92;;;;;;;;;;5008782;28;20368;-62
2021/12/23 07:59:08;;;;;;;7.30;2.40;;;;;;;;;;5009947;28;20037;-62
2021/12/23 08:01:34;;;;;;;4.13;1.95;;;;;;;;;;4993796;28;20045;-62
2021/12/23 08:04:00;;;;;;;5.03;2.10;;;;;;;;;;5011284;28;20041;-62
2021/12/23 08:06:27;;;;;;;5.70;2.20;;;;;;;;;;5008716;28;20073;-61
2021/12/23 08:08:53;;;;;;;7.50;2.63;;;;;;;;;;5010575;28;20037;-62
2021/12/23 08:11:18;;;;;;;7.80;2.90;;;;;;;;;;5009239;28;20038;-61
2021/12/23 08:13:44;;;;;;;6.22;3.03;;;;;;;;;;5010342;28;20052;-62
2021/12/23 08:16:10;;;;;;;6.45;3.20;;;;;;;;;;5010706;28;20038;-62
2021/12/23 08:18:36;;;;;;;4.60;2.08;;;;;;;;;;5012118;28;20060;-62
2021/12/23 08:21:02;;;;;;;5.88;1.77;;;;;;;;;;5013025;28;20052;-62
2021/12/23 08:23:28;;;;;;;3.97;1.65;;;;;;;;;;5012057;28;20060;-62
2021/12/23 08:25:55;;;;;;;4.38;1.00;;;;;;;;;;5012548;28;20034;-62
2021/12/23 08:28:21;;;;;;;1.55;0.55;;;;;;;;;;5010431;28;20049;-62
2021/12/23 08:30:47;;;;;;;2.40;0.80;;;;;;;;;;5011645;28;20372;-62
2021/12/23 08:33:13;;;;;;;1.27;0.50;;;;;;;;;;5010619;28;20060;-62
2021/12/23 08:35:39;;;;;;;1.02;0.47;;;;;;;;;;5010293;28;20037;-62
2021/12/23 08:38:05;;;;;;;3.58;0.68;;;;;;;;;;5010149;28;20169;-61
2021/12/23 08:40:31;;;;;;;1.02;0.40;;;;;;;;;;5007704;28;20050;-62
2021/12/23 08:42:58;;;;;;;1.35;0.50;;;;;;;;;;5010148;28;20056;-62
2021/12/23 08:45:25;;;;;;;1.85;0.60;;;;;;;;;;5008513;28;20136;-63
2021/12/23 08:47:52;;;;;;;0.55;0.35;;;;;;;;;;5010562;28;20045;-62
2021/12/23 08:50:18;;;;;;;0.90;0.50;;;;;;;;;;5009403;28;20835;-61
2021/12/23 08:52:45;;;;;;;0.32;0.30;;;;;;;;;;5011725;28;20050;-63
2021/12/23 08:55:11;;;;;;;0.30;0.30;;;;;;;;;;5011896;28;20084;-62
2021/12/23 08:57:37;;;;;;;0.30;0.30;;;;;;;;;;5010330;28;20080;-62
2021/12/23 09:00:04;;;;;;;0.43;0.40;;;;;;;;;;5011528;28;20038;-63
2021/12/23 09:02:30;;;;;;;1.35;0.50;;;;;;;;;;5009793;28;20087;-62
2021/12/23 09:04:55;;;;;;;0.57;0.32;;;;;;;;;;5010191;28;20045;-62
2021/12/23 09:07:21;;;;;;;0.52;0.40;;;;;;;;;;5010625;28;20048;-62
2021/12/23 09:09:50;;;;;;;0.70;0.40;;;;;;;;;;5011468;28;20212;-62
2021/12/23 09:12:16;;;;;;;0.73;0.40;;;;;;;;;;5009675;28;20045;-63
2021/12/23 09:14:42;;;;;;;1.30;0.50;;;;;;;;;;5010048;28;20041;-62
2021/12/23 09:17:08;;;;;;;1.27;0.50;;;;;;;;;;5009752;28;20049;-62
2021/12/23 09:19:34;;;;;;;0.55;0.40;;;;;;;;;;5008440;28;20041;-62
2021/12/23 09:22:00;;;;;;;1.25;0.40;;;;;;;;;;5007437;28;20050;-61
2021/12/23 09:24:27;;;;;;;0.75;0.43;;;;;;;;;;5007302;28;20228;-61
2021/12/23 09:27:00;;;;;;;0.35;0.32;;;;;;;;;;5010898;28;20033;-61
2021/12/23 09:35:00;;;;;;;0.30;0.30;;;;;;;;;;5007695;28;20088;-61
2021/12/23 09:37:27;;;;;;;2.65;0.40;;;;;;;;;;5008859;28;20037;-61
2021/12/23 09:39:55;;;;;;;0.63;0.40;;;;;;;;;;5008461;28;20124;-61
2021/12/23 09:42:28;;;;;;;0.82;0.40;;;;;;;;;;5007329;28;20083;-60
2021/12/23 09:44:58;;;;;;;;;;;;;;;;;;5011201;28;20068;-61
2021/12/23 09:47:29;;;;;;;1.13;0.47;;;;;;;;;;5012253;28;19996;-61
2021/12/23 09:49:55;;;;;;;1.63;0.50;;;;;;;;;;5011686;28;20049;-62
2021/12/23 09:52:22;;;;;;;0.88;0.40;;;;;;;;;;5010962;28;20080;-61
2021/12/23 09:54:48;;;;;;;1.17;0.47;;;;;;;;;;5011137;28;20026;-61
2021/12/23 09:57:14;;;;;;;0.55;0.30;;;;;;;;;;5012569;28;20057;-62
2021/12/23 09:59:41;;;;;;;0.90;0.40;;;;;;;;;;5011482;28;20041;-62
2021/12/23 10:02:07;;;;;;;0.90;0.40;;;;;;;;;;5009501;28;20240;-60
2021/12/23 10:04:33;;;;;;;1.27;0.40;;;;;;;;;;5011315;28;20049;-60
2021/12/23 10:06:59;;;;;;;0.57;0.40;;;;;;;;;;5012462;28;20050;-60
2021/12/23 10:09:58;;;;;;;0.80;0.40;;;;;;;;;;5011114;28;20072;-60
2021/12/23 10:13:04;;;;;;;0.88;0.40;;;;;;;;;;5012142;28;20052;-60
2021/12/23 10:32:12;;;;;;;0.45;0.40;;;;;;;;;;4973029;28;20067;-60
2021/12/23 10:37:16;;;;;;;1.20;0.40;;;;;;;;;;5011391;28;20121;-60
2021/12/23 10:39:44;;;;;;;0.65;0.40;;;;;;;;;;5010424;28;20069;-60
2021/12/23 10:42:15;;;;;;;0.45;0.30;;;;;;;;;;5010153;28;20111;-61
2021/12/23 10:44:47;;;;;;;0.65;0.40;;;;;;;;;;5011718;28;20038;-60
2021/12/23 10:47:34;;;;;;;0.30;0.30;;;;;;;;;;5011952;28;20111;-61
2021/12/23 10:50:57;;;;;;;0.88;0.40;;;;;;;;;;5009936;28;20053;-60
2021/12/23 10:59:02;;;;;;;0.88;0.40;;;;;;;;;;5012356;28;20068;-61
2021/12/23 11:01:28;;;;;;;1.30;0.50;;;;;;;;;;5013107;28;20033;-60
2021/12/23 11:03:59;;;;;;;0.82;0.40;;;;;;;;;;5014029;28;20096;-60
2021/12/23 11:06:32;;;;;;;0.55;0.40;;;;;;;;;;5011602;28;20042;-62
2021/12/23 11:41:19;;;;;;;8.75;5.43;;;;;;;;;;5011167;28;20048;-62
2021/12/23 11:43:52;;;;;;;;;;;;;;;;;;5011958;28;20545;-60
2021/12/23 11:46:24;;;;;;;14.75;8.80;;;;;;;;;;5010153;28;20043;-62
2021/12/23 11:48:55;;;;;;;14.55;7.40;;;;;;;;;;5010280;28;20048;-61
2021/12/23 11:52:07;;;;;;;19.00;6.93;;;;;;;;;;4997815;28;20045;-61
2021/12/23 11:54:15;;;;;;;14.25;5.45;;;;;;;;;;5000576;28;20042;-61
2021/12/23 11:56:50;;;;;;;16.30;7.32;;;;;;;;;;5010767;28;20034;-61
2021/12/23 11:59:17;;;;;;;14.93;6.85;;;;;;;;;;5012028;28;21418;-62
2021/12/23 12:01:48;;;;;;;12.13;6.57;;;;;;;;;;4991357;28;20057;-61
2021/12/23 12:04:21;;;;;;;17.25;8.25;;;;;;;;;;5011944;28;20038;-61
2021/12/23 12:06:48;;;;;;;13.25;7.05;;;;;;;;;;5010382;28;20041;-61
2021/12/23 12:09:14;;;;;;;16.42;7.38;;;;;;;;;;5011179;28;20148;-61
2021/12/23 12:11:40;;;;;;;11.18;5.50;;;;;;;;;;5010376;28;20537;-61
2021/12/23 12:14:26;;;;;;;14.13;6.63;;;;;;;;;;5011006;28;20040;-61
2021/12/23 12:16:52;;;;;;;20.45;9.80;;;;;;;;;;5010330;28;20037;-62
2021/12/23 12:19:37;;;;;;;13.60;6.50;;;;;;;;;;5009962;28;20056;-61
2021/12/23 12:22:03;;;;;;;17.95;8.40;;;;;;;;;;5010015;28;20076;-62
2021/12/23 12:24:44;;;;;;;18.65;7.28;;;;;;;;;;5009075;28;20119;-60
2021/12/23 12:27:10;;;;;;;18.80;7.40;;;;;;;;;;5009367;28;20121;-61
2021/12/23 12:29:37;;;;;;;16.58;7.68;;;;;;;;;;5011191;28;20046;-61
2021/12/23 12:32:04;;;;;;;16.52;5.93;;;;;;;;;;5010022;28;20046;-62
2021/12/23 12:34:36;;;;;;;30.27;8.10;;;;;;;;;;5008398;28;20038;-62
2021/12/23 12:37:03;;;;;;;13.20;4.93;;;;;;;;;;5009563;28;20037;-60
2021/12/23 12:39:32;;;;;;;29.05;9.77;;;;;;;;;;4994762;28;20062;-61
2021/12/23 12:42:04;;;;;;;37.70;10.05;;;;;;;;;;5008831;28;20041;-62
2021/12/23 12:45:01;;;;;;;10.25;5.15;;;;;;;;;;5009944;28;20083;-60
2021/12/23 12:47:31;;;;;;;16.95;5.70;;;;;;;;;;5008819;28;20052;-62
2021/12/23 12:50:06;;;;;;;15.90;7.72;;;;;;;;;;5008508;28;20064;-62
2021/12/23 12:52:36;;;;;;;16.60;6.53;;;;;;;;;;5007275;28;20046;-61
2021/12/23 12:55:05;;;;;;;17.42;7.68;;;;;;;;;;5010056;28;20089;-60
2021/12/23 12:57:36;;;;;;;24.80;9.95;;;;;;;;;;4989239;28;20781;-61
2021/12/23 13:00:27;;;;;;;11.00;6.50;;;;;;;;;;5007500;28;20096;-60
2021/12/23 13:03:05;;;;;;;11.93;5.75;;;;;;;;;;5000036;28;20061;-60
2021/12/23 13:05:34;;;;;;;16.90;5.32;;;;;;;;;;4997350;28;20072;-60
2021/12/23 13:08:05;;;;;;;68.00;15.73;;;;;;;;;;5007445;28;20206;-61
2021/12/23 13:10:32;;;;;;;26.17;10.07;;;;;;;;;;5007077;28;20072;-61
2021/12/23 13:13:01;;;;;;;21.50;9.18;;;;;;;;;;4990215;28;20045;-60
2021/12/23 13:15:34;;;;;;;5.07;3.78;;;;;;;;;;5009044;28;20033;-63
2021/12/23 13:18:00;;;;;;;;;;;;;;;;;;5008477;28;20394;-60
2021/12/23 13:20:34;;;;;;;16.33;9.60;;;;;;;;;;5006519;28;19921;-61
2021/12/23 13:23:04;;;;;;;11.63;5.47;;;;;;;;;;5008488;28;20053;-60
2021/12/23 13:25:30;;;;;;;27.17;6.20;;;;;;;;;;5007068;28;20471;-61
2021/12/23 13:27:56;;;;;;;20.52;6.93;;;;;;;;;;4989794;28;20463;-62
2021/12/23 13:30:22;;;;;;;12.82;6.63;;;;;;;;;;5006713;28;20048;-61
2021/12/23 13:33:01;;;;;;;20.50;7.00;;;;;;;;;;5008315;28;20058;-61
2021/12/23 13:35:27;;;;;;;13.18;6.10;;;;;;;;;;5007071;28;20069;-61
2021/12/23 13:37:53;;;;;;;15.68;6.97;;;;;;;;;;5008125;28;20060;-61
2021/12/23 13:40:33;;;;;;;16.50;5.85;;;;;;;;;;5005152;28;20144;-61
2021/12/23 13:42:59;;;;;;;35.97;12.65;;;;;;;;;;5007671;28;20049;-62
2021/12/23 13:45:26;;;;;;;16.10;7.40;;;;;;;;;;5006116;28;20034;-62
2021/12/23 13:47:56;;;;;;;52.63;14.93;;;;;;;;;;4998094;28;20051;-61
2021/12/23 13:50:22;;;;;;;71.63;11.40;;;;;;;;;;5006707;28;20050;-59
2021/12/23 13:52:49;;;;;;;36.78;9.93;;;;;;;;;;5007643;28;20049;-61
2021/12/23 13:55:25;;;;;;;14.98;7.35;;;;;;;;;;5007973;28;20038;-60
2021/12/23 13:57:53;;;;;;;31.33;10.52;;;;;;;;;;5006967;28;20038;-60
2021/12/23 14:00:23;;;;;;;45.40;8.98;;;;;;;;;;5006827;28;20044;-62
2021/12/23 14:02:53;;;;;;;31.95;8.55;;;;;;;;;;5007955;28;20164;-61
2021/12/23 14:05:20;;;;;;;58.33;14.30;;;;;;;;;;4991955;28;20038;-61
2021/12/23 14:07:47;;;;;;;10.20;4.65;;;;;;;;;;5009813;28;20191;-61
2021/12/23 14:10:15;;;;;;;13.25;4.63;;;;;;;;;;5006728;28;20046;-60
2021/12/23 14:12:46;;;;;;;12.23;5.13;;;;;;;;;;5007142;28;20050;-62
2021/12/23 14:15:21;;;;;;;32.40;7.30;;;;;;;;;;5008113;28;20049;-60
2021/12/23 14:17:49;;;;;;;42.92;12.65;;;;;;;;;;5007038;28;20050;-62
2021/12/23 14:23:16;;;;;;;38.38;12.10;;;;;;;;;;5005227;28;20048;-61
2021/12/23 14:25:50;;;;;;;44.45;10.27;;;;;;;;;;5006041;28;20038;-61
2021/12/23 14:28:25;;;;;;;35.22;9.57;;;;;;;;;;5007819;28;20092;-61
2021/12/23 14:30:53;;;;;;;5.57;3.30;;;;;;;;;;5006459;28;20041;-60
2021/12/23 14:33:24;;;;;;;31.38;11.57;;;;;;;;;;5009594;28;20808;-60
2021/12/23 14:35:54;;;;;;;50.05;17.50;;;;;;;;;;4990858;28;20030;-60
2021/12/23 14:38:31;;;;;;;19.05;8.02;;;;;;;;;;4977854;28;20037;-60
2021/12/23 14:40:59;;;;;;;41.10;11.45;;;;;;;;;;5010678;28;20078;-60
2021/12/23 14:43:25;;;;;;;37.63;13.48;;;;;;;;;;5010648;28;20100;-60
2021/12/23 14:45:57;;;;;;;17.52;5.18;;;;;;;;;;5010211;28;20041;-60
2021/12/23 14:48:25;;;;;;;15.63;7.30;;;;;;;;;;5010827;28;20657;-59
2021/12/23 14:51:01;;;;;;;13.00;7.05;;;;;;;;;;5009524;28;20710;-59
2021/12/23 14:53:27;;;;;;;22.77;10.18;;;;;;;;;;5009530;28;21076;-60
2021/12/23 14:55:58;;;;;;;10.32;5.28;;;;;;;;;;5011026;28;20068;-59
2021/12/23 14:58:24;;;;;;;9.38;4.97;;;;;;;;;;5009895;28;20045;-59
2021/12/23 15:00:51;;;;;;;15.05;5.43;;;;;;;;;;5010628;28;20043;-59
2021/12/23 15:03:18;;;;;;;9.38;5.15;;;;;;;;;;5011305;28;20081;-59
2021/12/23 15:05:45;;;;;;;22.90;4.57;;;;;;;;;;5010232;28;20558;-59
2021/12/23 15:08:18;;;;;;;18.45;7.32;;;;;;;;;;5010742;28;20130;-60
2021/12/23 15:10:44;;;;;;;;;;;;;;;;;;5009948;28;20050;-59
2021/12/23 15:13:23;;;;;;;7.07;4.20;;;;;;;;;;5011231;28;19975;-58
2021/12/23 15:15:57;;;;;;;15.27;7.15;;;;;;;;;;5012354;28;20057;-60
2021/12/23 15:18:40;;;;;;;13.60;7.13;;;;;;;;;;5012352;28;20580;-60
2021/12/23 15:21:11;;;;;;;21.48;9.02;;;;;;;;;;5012974;28;20957;-62
2021/12/23 15:23:40;;;;;;;13.48;6.85;;;;;;;;;;5011575;28;20092;-60
2021/12/23 15:26:24;;;;;;;17.50;7.50;;;;;;;;;;5011561;28;20783;-61
2021/12/23 15:29:22;;;;;;;15.57;8.52;;;;;;;;;;5013614;28;20044;-61
2021/12/23 15:32:10;;;;;;;24.67;11.57;;;;;;;;;;4966629;28;20191;-61
2021/12/23 15:34:39;;;;;;;6.25;2.42;;;;;;;;;;5010202;28;20056;-61
2021/12/23 15:37:05;;;;;;;22.50;10.18;;;;;;;;;;5011965;28;20037;-62
2021/12/23 15:39:32;;;;;;;8.95;5.10;;;;;;;;;;5012289;28;20042;-60
2021/12/23 15:41:59;;;;;;;7.00;3.80;;;;;;;;;;5012230;28;20050;-61
2021/12/23 15:44:26;;;;;;;15.20;5.28;;;;;;;;;;5009272;28;20069;-62
2021/12/23 15:46:53;;;;;;;12.20;5.03;;;;;;;;;;5010262;28;20049;-61
2021/12/23 15:49:19;;;;;;;9.43;2.92;;;;;;;;;;5008970;28;20088;-61
2021/12/23 15:51:45;;;;;;;28.50;8.50;;;;;;;;;;5010019;28;20121;-61
2021/12/23 15:54:11;;;;;;;14.93;4.72;;;;;;;;;;5010900;28;20104;-62
2021/12/23 15:56:37;;;;;;;29.48;6.93;;;;;;;;;;5009144;28;20513;-61